sensor_id;sensor_type;location;lat;lon;timestamp;pressure;altitude;pressure_sealevel;temperature;humidity
30516;BME280;17297;54.022;10.760;2023-04-10T00:00:23;102586.56;;;8.71;74.88
30516;BME280;17297;54.022;10.760;2023-04-10T00:02:51;102580.22;;;8.72;74.86
30516;BME280;17297;54.022;10.760;2023-04-10T00:05:17;102588.28;;;8.72;74.71
30516;BME280;17297;54.022;10.760;2023-04-10T00:07:42;102581.91;;;8.73;74.90
30516;BME280;17297;54.022;10.760;2023-04-10T00:10:08;102595.19;;;8.75;74.79
30516;BME280;17297;54.022;10.760;2023-04-10T00:12:36;102583.59;;;8.74;74.81
30516;BME280;17297;54.022;10.760;2023-04-10T00:15:02;102573.88;;;8.73;74.87
30516;BME280;17297;54.022;10.760;2023-04-10T00:17:28;102572.19;;;8.72;74.40
30516;BME280;17297;54.022;10.760;2023-04-10T00:19:53;102574.97;;;8.71;74.76
30516;BME280;17297;54.022;10.760;2023-04-10T00:22:19;102568.03;;;8.68;74.70
30516;BME280;17297;54.022;10.760;2023-04-10T00:24:57;102567.47;;;8.65;74.78
30516;BME280;17297;54.022;10.760;2023-04-10T00:27:22;102572.00;;;8.64;74.41
30516;BME280;17297;54.022;10.760;2023-04-10T00:29:48;102560.53;;;8.62;74.56
30516;BME280;17297;54.022;10.760;2023-04-10T00:32:25;102555.44;;;8.59;74.66
30516;BME280;17297;54.022;10.760;2023-04-10T00:34:59;102560.13;;;8.57;74.57
30516;BME280;17297;54.022;10.760;2023-04-10T00:37:25;102563.75;;;8.56;74.63
30516;BME280;17297;54.022;10.760;2023-04-10T00:39:51;102549.66;;;8.54;74.37
30516;BME280;17297;54.022;10.760;2023-04-10T00:42:16;102542.72;;;8.51;74.40
30516;BME280;17297;54.022;10.760;2023-04-10T00:44:42;102543.84;;;8.49;74.48
30516;BME280;17297;54.022;10.760;2023-04-10T00:47:12;102544.09;;;8.46;74.66
30516;BME280;17297;54.022;10.760;2023-04-10T00:49:37;102540.69;;;8.44;74.42
30516;BME280;17297;54.022;10.760;2023-04-10T00:52:02;102542.53;;;8.43;74.62
30516;BME280;17297;54.022;10.760;2023-04-10T00:54:28;102540.97;;;8.41;74.47
30516;BME280;17297;54.022;10.760;2023-04-10T00:56:55;102541.13;;;8.39;74.63
30516;BME280;17297;54.022;10.760;2023-04-10T00:59:21;102543.81;;;8.39;74.56
30516;BME280;17297;54.022;10.760;2023-04-10T01:01:47;102548.31;;;8.39;74.56
30516;BME280;17297;54.022;10.760;2023-04-10T01:04:12;102545.66;;;8.39;74.56
30516;BME280;17297;54.022;10.760;2023-04-10T01:09:55;102544.66;;;8.40;74.88
30516;BME280;17297;54.022;10.760;2023-04-10T01:15:24;102539.28;;;8.40;74.56
30516;BME280;17297;54.022;10.760;2023-04-10T01:18:03;102535.59;;;8.41;74.61
30516;BME280;17297;54.022;10.760;2023-04-10T01:20:33;102542.69;;;8.42;74.44
30516;BME280;17297;54.022;10.760;2023-04-10T01:26:02;102549.03;;;8.41;74.29
30516;BME280;17297;54.022;10.760;2023-04-10T01:28:58;102551.69;;;8.41;74.33
30516;BME280;17297;54.022;10.760;2023-04-10T01:31:36;102554.38;;;8.41;74.32
30516;BME280;17297;54.022;10.760;2023-04-10T01:34:07;102548.19;;;8.40;74.32
30516;BME280;17297;54.022;10.760;2023-04-10T01:36:50;102548.19;;;8.40;74.23
30516;BME280;17297;54.022;10.760;2023-04-10T01:39:21;102555.25;;;8.41;74.38
30516;BME280;17297;54.022;10.760;2023-04-10T01:41:51;102545.38;;;8.42;74.24
30516;BME280;17297;54.022;10.760;2023-04-10T01:44:22;102549.75;;;8.43;74.34
30516;BME280;17297;54.022;10.760;2023-04-10T01:46:51;102549.75;;;8.43;74.08
30516;BME280;17297;54.022;10.760;2023-04-10T01:49:17;102547.06;;;8.43;74.03
30516;BME280;17297;54.022;10.760;2023-04-10T01:51:43;102547.22;;;8.41;73.99
30516;BME280;17297;54.022;10.760;2023-04-10T01:54:11;102549.91;;;8.41;74.14
30516;BME280;17297;54.022;10.760;2023-04-10T01:56:37;102545.38;;;8.42;74.13
30516;BME280;17297;54.022;10.760;2023-04-10T01:59:03;102537.31;;;8.42;74.18
30516;BME280;17297;54.022;10.760;2023-04-10T02:01:29;102533.81;;;8.41;73.99
30516;BME280;17297;54.022;10.760;2023-04-10T02:03:57;102521.34;;;8.40;74.17
30516;BME280;17297;54.022;10.760;2023-04-10T02:06:40;102533.81;;;8.41;74.26
30516;BME280;17297;54.022;10.760;2023-04-10T02:09:18;102525.75;;;8.41;74.24
30516;BME280;17297;54.022;10.760;2023-04-10T02:11:46;102519.53;;;8.41;74.16
30516;BME280;17297;54.022;10.760;2023-04-10T02:14:15;102520.50;;;8.40;74.02
30516;BME280;17297;54.022;10.760;2023-04-10T02:16:42;102523.19;;;8.40;74.00
30516;BME280;17297;54.022;10.760;2023-04-10T02:19:11;102514.31;;;8.39;74.13
30516;BME280;17297;54.022;10.760;2023-04-10T02:21:37;102510.63;;;8.40;73.90
30516;BME280;17297;54.022;10.760;2023-04-10T02:24:05;102513.47;;;8.39;74.05
30516;BME280;17297;54.022;10.760;2023-04-10T02:26:46;102510.03;;;8.37;73.82
30516;BME280;17297;54.022;10.760;2023-04-10T02:29:12;102503.94;;;8.34;73.96
30516;BME280;17297;54.022;10.760;2023-04-10T02:31:39;102500.56;;;8.32;73.80
30516;BME280;17297;54.022;10.760;2023-04-10T02:34:04;102490.94;;;8.30;73.98
30516;BME280;17297;54.022;10.760;2023-04-10T02:36:30;102487.44;;;8.29;73.78
30516;BME280;17297;54.022;10.760;2023-04-10T02:38:55;102487.53;;;8.28;73.78
30516;BME280;17297;54.022;10.760;2023-04-10T02:41:22;102491.22;;;8.27;73.88
30516;BME280;17297;54.022;10.760;2023-04-10T02:43:51;102485.00;;;8.26;73.92
30516;BME280;17297;54.022;10.760;2023-04-10T02:46:23;102477.94;;;8.25;73.85
30516;BME280;17297;54.022;10.760;2023-04-10T02:48:51;102475.53;;;8.22;73.84
30516;BME280;17297;54.022;10.760;2023-04-10T02:51:17;102474.84;;;8.20;73.78
30516;BME280;17297;54.022;10.760;2023-04-10T02:53:42;102476.78;;;8.18;73.71
30516;BME280;17297;54.022;10.760;2023-04-10T02:56:10;102476.94;;;8.17;73.92
30516;BME280;17297;54.022;10.760;2023-04-10T02:58:36;102485.09;;;8.15;74.00
30516;BME280;17297;54.022;10.760;2023-04-10T03:01:04;102468.44;;;8.12;73.72
30516;BME280;17297;54.022;10.760;2023-04-10T03:03:49;102471.41;;;8.08;73.92
30516;BME280;17297;54.022;10.760;2023-04-10T03:06:23;102471.66;;;8.05;73.74
30516;BME280;17297;54.022;10.760;2023-04-10T03:08:52;102470.94;;;8.03;73.90
30516;BME280;17297;54.022;10.760;2023-04-10T03:11:17;102470.94;;;8.03;73.88
30516;BME280;17297;54.022;10.760;2023-04-10T03:13:43;102467.41;;;8.03;74.02
30516;BME280;17297;54.022;10.760;2023-04-10T03:16:08;102459.63;;;8.00;74.00
30516;BME280;17297;54.022;10.760;2023-04-10T03:18:34;102457.94;;;7.99;73.86
30516;BME280;17297;54.022;10.760;2023-04-10T03:20:59;102454.53;;;7.97;73.98
30516;BME280;17297;54.022;10.760;2023-04-10T03:23:26;102445.81;;;7.95;73.83
30516;BME280;17297;54.022;10.760;2023-04-10T03:25:51;102438.75;;;7.94;73.81
30516;BME280;17297;54.022;10.760;2023-04-10T03:28:23;102438.03;;;7.92;73.98
30516;BME280;17297;54.022;10.760;2023-04-10T03:30:49;102438.16;;;7.90;73.90
30516;BME280;17297;54.022;10.760;2023-04-10T03:33:15;102439.84;;;7.91;74.01
30516;BME280;17297;54.022;10.760;2023-04-10T03:35:40;102429.28;;;7.90;73.86
30516;BME280;17297;54.022;10.760;2023-04-10T03:38:06;102429.28;;;7.90;74.10
30516;BME280;17297;54.022;10.760;2023-04-10T03:40:32;102412.47;;;7.87;73.80
30516;BME280;17297;54.022;10.760;2023-04-10T03:42:59;102422.34;;;7.87;73.88
30516;BME280;17297;54.022;10.760;2023-04-10T03:45:27;102423.47;;;7.84;73.72
30516;BME280;17297;54.022;10.760;2023-04-10T03:47:52;102420.94;;;7.83;73.76
30516;BME280;17297;54.022;10.760;2023-04-10T03:50:18;102423.63;;;7.83;73.91
30516;BME280;17297;54.022;10.760;2023-04-10T03:52:50;102416.56;;;7.82;73.74
30516;BME280;17297;54.022;10.760;2023-04-10T03:55:18;102417.53;;;7.81;73.91
30516;BME280;17297;54.022;10.760;2023-04-10T03:57:47;102422.88;;;7.81;73.73
30516;BME280;17297;54.022;10.760;2023-04-10T04:00:15;102421.06;;;7.81;73.95
30516;BME280;17297;54.022;10.760;2023-04-10T04:02:47;102414.00;;;7.80;73.76
30516;BME280;17297;54.022;10.760;2023-04-10T04:05:25;102413.16;;;7.80;73.89
30516;BME280;17297;54.022;10.760;2023-04-10T04:08:09;102416.56;;;7.82;73.71
30516;BME280;17297;54.022;10.760;2023-04-10T04:10:50;102421.94;;;7.82;73.68
30516;BME280;17297;54.022;10.760;2023-04-10T04:13:36;102414.72;;;7.82;73.68
30516;BME280;17297;54.022;10.760;2023-04-10T04:16:05;102416.69;;;7.80;73.87
30516;BME280;17297;54.022;10.760;2023-04-10T04:18:52;102428.25;;;7.81;73.79
30516;BME280;17297;54.022;10.760;2023-04-10T04:21:39;102423.88;;;7.80;73.85
30516;BME280;17297;54.022;10.760;2023-04-10T04:24:35;102422.88;;;7.81;73.79
30516;BME280;17297;54.022;10.760;2023-04-10T04:27:13;102425.72;;;7.79;73.83
30516;BME280;17297;54.022;10.760;2023-04-10T04:30:03;102423.03;;;7.79;73.74
30516;BME280;17297;54.022;10.760;2023-04-10T04:32:42;102411.59;;;7.77;73.77
30516;BME280;17297;54.022;10.760;2023-04-10T04:35:16;102421.31;;;7.78;73.72
30516;BME280;17297;54.022;10.760;2023-04-10T04:37:50;102419.63;;;7.77;73.79
30516;BME280;17297;54.022;10.760;2023-04-10T04:40:40;102412.44;;;7.78;73.79
30516;BME280;17297;54.022;10.760;2023-04-10T04:43:14;102416.09;;;7.77;73.91
30516;BME280;17297;54.022;10.760;2023-04-10T04:46:02;102415.97;;;7.78;73.71
30516;BME280;17297;54.022;10.760;2023-04-10T04:48:48;102417.78;;;7.78;73.73
30516;BME280;17297;54.022;10.760;2023-04-10T04:51:31;102412.16;;;7.81;73.81
30516;BME280;17297;54.022;10.760;2023-04-10T04:54:05;102409.50;;;7.81;74.00
30516;BME280;17297;54.022;10.760;2023-04-10T04:57:06;102413.63;;;7.85;73.96
30516;BME280;17297;54.022;10.760;2023-04-10T04:59:50;102410.78;;;7.86;73.76
30516;BME280;17297;54.022;10.760;2023-04-10T05:02:36;102414.78;;;7.92;73.91
30516;BME280;17297;54.022;10.760;2023-04-10T05:05:14;102408.56;;;7.92;73.86
30516;BME280;17297;54.022;10.760;2023-04-10T05:07:45;102407.41;;;7.94;73.92
30516;BME280;17297;54.022;10.760;2023-04-10T05:10:15;102408.72;;;8.00;74.00
30516;BME280;17297;54.022;10.760;2023-04-10T05:12:57;102408.91;;;8.08;74.16
30516;BME280;17297;54.022;10.760;2023-04-10T05:15:47;102411.75;;;8.16;74.26
30516;BME280;17297;54.022;10.760;2023-04-10T05:18:31;102416.88;;;8.29;74.19
30516;BME280;17297;54.022;10.760;2023-04-10T05:21:08;102421.59;;;8.46;74.44
30516;BME280;17297;54.022;10.760;2023-04-10T05:23:40;102420.34;;;8.60;74.24
30516;BME280;17297;54.022;10.760;2023-04-10T05:26:15;102421.19;;;8.70;74.33
30516;BME280;17297;54.022;10.760;2023-04-10T05:28:50;102418.94;;;8.85;74.35
30516;BME280;17297;54.022;10.760;2023-04-10T05:31:41;102418.50;;;8.99;74.24
30516;BME280;17297;54.022;10.760;2023-04-10T05:34:16;102423.03;;;9.09;73.87
30516;BME280;17297;54.022;10.760;2023-04-10T05:36:59;102417.09;;;9.15;74.03
30516;BME280;17297;54.022;10.760;2023-04-10T05:40:06;102415.81;;;9.19;73.71
30516;BME280;17297;54.022;10.760;2023-04-10T05:42:53;102412.41;;;9.27;73.86
30516;BME280;17297;54.022;10.760;2023-04-10T05:45:27;102413.09;;;9.38;73.68
30516;BME280;17297;54.022;10.760;2023-04-10T05:48:08;102409.41;;;9.49;73.55
30516;BME280;17297;54.022;10.760;2023-04-10T05:50:47;102409.78;;;9.64;73.71
30516;BME280;17297;54.022;10.760;2023-04-10T05:53:31;102404.59;;;9.90;74.04
30516;BME280;17297;54.022;10.760;2023-04-10T05:56:24;102391.16;;;10.17;73.51
30516;BME280;17297;54.022;10.760;2023-04-10T05:59:15;102393.06;;;10.35;73.39
30516;BME280;17297;54.022;10.760;2023-04-10T06:01:56;102388.47;;;10.45;73.02
30516;BME280;17297;54.022;10.760;2023-04-10T06:04:22;102384.00;;;10.54;72.86
30516;BME280;17297;54.022;10.760;2023-04-10T06:06:51;102382.94;;;10.64;72.76
30516;BME280;17297;54.022;10.760;2023-04-10T06:09:16;102379.41;;;10.82;72.39
30516;BME280;17297;54.022;10.760;2023-04-10T06:11:41;102374.66;;;11.02;72.33
30516;BME280;17297;54.022;10.760;2023-04-10T06:14:07;102371.25;;;11.18;72.06
30516;BME280;17297;54.022;10.760;2023-04-10T06:16:38;102375.22;;;11.31;71.60
30516;BME280;17297;54.022;10.760;2023-04-10T06:19:04;102381.34;;;11.42;71.10
30516;BME280;17297;54.022;10.760;2023-04-10T06:21:29;102374.16;;;11.50;71.06
30516;BME280;17297;54.022;10.760;2023-04-10T06:23:54;102375.72;;;11.61;70.63
30516;BME280;17297;54.022;10.760;2023-04-10T06:26:20;102367.81;;;11.60;69.93
30516;BME280;17297;54.022;10.760;2023-04-10T06:28:45;102359.84;;;11.50;69.42
30516;BME280;17297;54.022;10.760;2023-04-10T06:31:13;102359.59;;;11.35;69.70
30516;BME280;17297;54.022;10.760;2023-04-10T06:33:39;102351.44;;;11.27;69.97
30516;BME280;17297;54.022;10.760;2023-04-10T06:36:06;102349.25;;;11.22;69.96
30516;BME280;17297;54.022;10.760;2023-04-10T06:38:37;102348.66;;;11.37;70.46
30516;BME280;17297;54.022;10.760;2023-04-10T06:41:06;102337.09;;;11.52;70.10
30516;BME280;17297;54.022;10.760;2023-04-10T06:43:33;102338.50;;;11.56;69.73
30516;BME280;17297;54.022;10.760;2023-04-10T06:45:59;102341.19;;;11.56;69.44
30516;BME280;17297;54.022;10.760;2023-04-10T06:48:25;102339.84;;;11.61;69.64
30516;BME280;17297;54.022;10.760;2023-04-10T06:50:50;102332.13;;;11.66;69.86
30516;BME280;17297;54.022;10.760;2023-04-10T06:53:15;102331.69;;;11.78;69.96
30516;BME280;17297;54.022;10.760;2023-04-10T06:55:40;102337.34;;;11.93;69.75
30516;BME280;17297;54.022;10.760;2023-04-10T06:58:06;102324.69;;;12.02;69.48
30516;BME280;17297;54.022;10.760;2023-04-10T07:00:31;102328.78;;;12.06;68.98
30516;BME280;17297;54.022;10.760;2023-04-10T07:02:56;102323.91;;;12.10;68.69
30516;BME280;17297;54.022;10.760;2023-04-10T07:05:22;102323.91;;;12.10;68.50
30516;BME280;17297;54.022;10.760;2023-04-10T07:07:47;102326.28;;;12.13;68.53
30516;BME280;17297;54.022;10.760;2023-04-10T07:10:15;102321.53;;;12.15;68.26
30516;BME280;17297;54.022;10.760;2023-04-10T07:12:40;102321.19;;;12.18;68.49
30516;BME280;17297;54.022;10.760;2023-04-10T07:15:09;102320.22;;;12.19;68.33
30516;BME280;17297;54.022;10.760;2023-04-10T07:17:36;102318.72;;;12.24;68.71
30516;BME280;17297;54.022;10.760;2023-04-10T07:20:02;102312.47;;;12.32;68.71
30516;BME280;17297;54.022;10.760;2023-04-10T07:22:30;102322.78;;;12.45;68.62
30516;BME280;17297;54.022;10.760;2023-04-10T07:24:56;102316.38;;;12.62;68.66
30516;BME280;17297;54.022;10.760;2023-04-10T07:27:25;102321.09;;;12.77;68.25
30516;BME280;17297;54.022;10.760;2023-04-10T07:29:54;102323.28;;;12.89;68.21
30516;BME280;17297;54.022;10.760;2023-04-10T07:32:19;102319.75;;;13.05;68.28
30516;BME280;17297;54.022;10.760;2023-04-10T07:34:46;102313.13;;;13.16;67.62
30516;BME280;17297;54.022;10.760;2023-04-10T07:37:11;102320.41;;;13.15;67.28
30516;BME280;17297;54.022;10.760;2023-04-10T07:39:40;102313.81;;;13.10;67.27
30516;BME280;17297;54.022;10.760;2023-04-10T07:42:05;102311.78;;;13.04;67.09
30516;BME280;17297;54.022;10.760;2023-04-10T07:44:31;102314.34;;;12.97;66.87
30516;BME280;17297;54.022;10.760;2023-04-10T07:46:56;102315.53;;;12.94;67.01
30516;BME280;17297;54.022;10.760;2023-04-10T07:49:22;102308.94;;;12.89;67.03
30516;BME280;17297;54.022;10.760;2023-04-10T07:51:48;102302.00;;;12.86;67.02
30516;BME280;17297;54.022;10.760;2023-04-10T07:54:14;102302.88;;;12.87;67.35
30516;BME280;17297;54.022;10.760;2023-04-10T07:56:39;102302.88;;;12.87;67.08
30516;BME280;17297;54.022;10.760;2023-04-10T07:59:05;102303.03;;;12.85;66.89
30516;BME280;17297;54.022;10.760;2023-04-10T08:01:36;102287.84;;;12.84;67.13
30516;BME280;17297;54.022;10.760;2023-04-10T08:04:04;102301.16;;;12.86;67.17
30516;BME280;17297;54.022;10.760;2023-04-10T08:06:29;102296.94;;;12.91;66.79
30516;BME280;17297;54.022;10.760;2023-04-10T08:08:56;102287.31;;;12.97;66.75
30516;BME280;17297;54.022;10.760;2023-04-10T08:11:24;102291.03;;;13.04;66.49
30516;BME280;17297;54.022;10.760;2023-04-10T08:13:50;102282.22;;;13.10;66.28
30516;BME280;17297;54.022;10.760;2023-04-10T08:16:19;102290.31;;;13.18;66.21
30516;BME280;17297;54.022;10.760;2023-04-10T08:18:44;102286.97;;;13.25;66.32
30516;BME280;17297;54.022;10.760;2023-04-10T08:21:10;102283.56;;;13.31;66.35
30516;BME280;17297;54.022;10.760;2023-04-10T08:23:35;102281.16;;;13.36;66.06
30516;BME280;17297;54.022;10.760;2023-04-10T08:26:01;102281.50;;;13.41;65.94
30516;BME280;17297;54.022;10.760;2023-04-10T08:28:26;102278.09;;;13.47;65.47
30516;BME280;17297;54.022;10.760;2023-04-10T08:30:54;102268.63;;;13.51;65.51
30516;BME280;17297;54.022;10.760;2023-04-10T08:33:19;102264.38;;;13.57;65.46
30516;BME280;17297;54.022;10.760;2023-04-10T08:35:48;102261.16;;;13.61;65.29
30516;BME280;17297;54.022;10.760;2023-04-10T08:38:13;102259.78;;;13.66;65.08
30516;BME280;17297;54.022;10.760;2023-04-10T08:40:38;102251.47;;;13.67;64.75
30516;BME280;17297;54.022;10.760;2023-04-10T08:43:04;102254.69;;;13.71;64.77
30516;BME280;17297;54.022;10.760;2023-04-10T08:45:30;102235.69;;;13.79;64.95
30516;BME280;17297;54.022;10.760;2023-04-10T08:47:57;102233.44;;;13.91;64.71
30516;BME280;17297;54.022;10.760;2023-04-10T08:50:28;102237.94;;;13.98;64.27
30516;BME280;17297;54.022;10.760;2023-04-10T08:52:57;102233.66;;;14.04;63.71
30516;BME280;17297;54.022;10.760;2023-04-10T08:55:24;102226.88;;;14.08;63.53
30516;BME280;17297;54.022;10.760;2023-04-10T08:57:50;102227.00;;;14.15;63.19
30516;BME280;17297;54.022;10.760;2023-04-10T09:00:17;102228.44;;;14.25;63.22
30516;BME280;17297;54.022;10.760;2023-04-10T09:02:42;102217.19;;;14.37;63.13
30516;BME280;17297;54.022;10.760;2023-04-10T09:05:10;102217.56;;;14.48;62.77
30516;BME280;17297;54.022;10.760;2023-04-10T09:07:36;102212.78;;;14.59;62.43
30516;BME280;17297;54.022;10.760;2023-04-10T09:10:01;102203.56;;;14.68;62.35
30516;BME280;17297;54.022;10.760;2023-04-10T09:12:27;102211.41;;;14.77;61.86
30516;BME280;17297;54.022;10.760;2023-04-10T09:14:55;102199.63;;;14.85;61.88
30516;BME280;17297;54.022;10.760;2023-04-10T09:17:23;102199.56;;;14.93;61.86
30516;BME280;17297;54.022;10.760;2023-04-10T09:19:53;102191.53;;;15.00;60.72
30516;BME280;17297;54.022;10.760;2023-04-10T09:22:33;102190.56;;;15.08;60.58
30516;BME280;17297;54.022;10.760;2023-04-10T09:24:59;102184.41;;;15.14;60.26
30516;BME280;17297;54.022;10.760;2023-04-10T09:27:35;102184.50;;;15.20;60.15
30516;BME280;17297;54.022;10.760;2023-04-10T09:30:02;102175.41;;;15.28;60.16
30516;BME280;17297;54.022;10.760;2023-04-10T09:32:48;102172.78;;;15.35;60.47
30516;BME280;17297;54.022;10.760;2023-04-10T09:35:14;102170.59;;;15.45;61.54
30516;BME280;17297;54.022;10.760;2023-04-10T09:37:41;102164.63;;;15.50;60.60
30516;BME280;17297;54.022;10.760;2023-04-10T09:40:28;102173.66;;;15.57;60.03
30516;BME280;17297;54.022;10.760;2023-04-10T09:42:55;102160.38;;;15.62;59.79
30516;BME280;17297;54.022;10.760;2023-04-10T09:45:20;102163.19;;;15.68;59.65
30516;BME280;17297;54.022;10.760;2023-04-10T09:48:06;102152.78;;;15.72;59.65
30516;BME280;17297;54.022;10.760;2023-04-10T09:50:39;102140.13;;;15.79;58.86
30516;BME280;17297;54.022;10.760;2023-04-10T09:53:06;102143.94;;;15.85;58.32
30516;BME280;17297;54.022;10.760;2023-04-10T09:55:33;102135.03;;;15.91;58.08
30516;BME280;17297;54.022;10.760;2023-04-10T09:57:59;102126.94;;;15.98;58.44
30516;BME280;17297;54.022;10.760;2023-04-10T10:00:25;102130.56;;;16.05;57.96
30516;BME280;17297;54.022;10.760;2023-04-10T10:02:52;102129.78;;;16.11;58.01
30516;BME280;17297;54.022;10.760;2023-04-10T10:05:20;102125.25;;;16.18;57.78
30516;BME280;17297;54.022;10.760;2023-04-10T10:07:47;102114.66;;;16.23;57.05
30516;BME280;17297;54.022;10.760;2023-04-10T10:10:12;102113.22;;;16.27;56.33
30516;BME280;17297;54.022;10.760;2023-04-10T10:12:47;102110.75;;;16.32;56.42
30516;BME280;17297;54.022;10.760;2023-04-10T10:15:30;102099.72;;;16.40;56.79
30516;BME280;17297;54.022;10.760;2023-04-10T10:18:16;102096.84;;;16.49;56.60
30516;BME280;17297;54.022;10.760;2023-04-10T10:20:45;102087.69;;;16.56;56.20
30516;BME280;17297;54.022;10.760;2023-04-10T10:23:12;102079.16;;;16.59;55.74
30516;BME280;17297;54.022;10.760;2023-04-10T10:25:40;102070.59;;;16.62;55.76
30516;BME280;17297;54.022;10.760;2023-04-10T10:28:06;102069.16;;;16.67;54.94
30516;BME280;17297;54.022;10.760;2023-04-10T10:30:32;102055.81;;;16.72;54.62
30516;BME280;17297;54.022;10.760;2023-04-10T10:32:58;102057.28;;;16.74;53.69
30516;BME280;17297;54.022;10.760;2023-04-10T10:35:29;102045.22;;;16.77;53.31
30516;BME280;17297;54.022;10.760;2023-04-10T10:37:57;102043.09;;;16.79;52.79
30516;BME280;17297;54.022;10.760;2023-04-10T10:40:34;102038.06;;;16.76;53.59
30516;BME280;17297;54.022;10.760;2023-04-10T10:43:17;102030.78;;;16.76;51.84
30516;BME280;17297;54.022;10.760;2023-04-10T10:46:01;102021.38;;;16.79;52.60
30516;BME280;17297;54.022;10.760;2023-04-10T10:48:31;102016.56;;;16.81;51.22
30516;BME280;17297;54.022;10.760;2023-04-10T10:50:59;102018.25;;;16.82;50.99
30516;BME280;17297;54.022;10.760;2023-04-10T10:53:33;102002.81;;;16.82;50.88
30516;BME280;17297;54.022;10.760;2023-04-10T10:58:49;101996.06;;;16.78;50.23
30516;BME280;17297;54.022;10.760;2023-04-10T11:01:15;101992.34;;;16.79;50.30
30516;BME280;17297;54.022;10.760;2023-04-10T11:03:41;101996.31;;;16.83;50.26
30516;BME280;17297;54.022;10.760;2023-04-10T11:06:12;101993.63;;;16.90;49.26
30516;BME280;17297;54.022;10.760;2023-04-10T11:08:39;101978.78;;;16.93;49.23
30516;BME280;17297;54.022;10.760;2023-04-10T11:11:18;101972.53;;;16.99;48.65
30516;BME280;17297;54.022;10.760;2023-04-10T11:14:11;101970.66;;;17.06;49.29
30516;BME280;17297;54.022;10.760;2023-04-10T11:16:41;101969.19;;;17.10;48.41
30516;BME280;17297;54.022;10.760;2023-04-10T11:19:11;101972.53;;;17.12;48.58
30516;BME280;17297;54.022;10.760;2023-04-10T11:22:03;101962.91;;;17.16;48.85
30516;BME280;17297;54.022;10.760;2023-04-10T11:24:50;101948.50;;;17.22;48.85
30516;BME280;17297;54.022;10.760;2023-04-10T11:27:42;101948.53;;;17.29;47.87
30516;BME280;17297;54.022;10.760;2023-04-10T11:30:39;101937.22;;;17.32;47.01
30516;BME280;17297;54.022;10.760;2023-04-10T11:33:05;101928.84;;;17.34;46.00
30516;BME280;17297;54.022;10.760;2023-04-10T11:35:31;101927.19;;;17.33;44.62
30516;BME280;17297;54.022;10.760;2023-04-10T11:38:10;101910.00;;;17.25;44.36
30516;BME280;17297;54.022;10.760;2023-04-10T11:40:52;101922.78;;;17.18;44.43
30516;BME280;17297;54.022;10.760;2023-04-10T11:43:18;101910.22;;;17.17;44.49
30516;BME280;17297;54.022;10.760;2023-04-10T11:45:43;101921.72;;;17.19;44.52
30516;BME280;17297;54.022;10.760;2023-04-10T11:48:09;101902.69;;;17.19;45.02
30516;BME280;17297;54.022;10.760;2023-04-10T11:50:34;101903.13;;;17.23;44.53
30516;BME280;17297;54.022;10.760;2023-04-10T11:53:00;101895.59;;;17.25;45.02
30516;BME280;17297;54.022;10.760;2023-04-10T11:55:38;101902.28;;;17.29;45.32
30516;BME280;17297;54.022;10.760;2023-04-10T11:58:03;101895.38;;;17.33;44.99
30516;BME280;17297;54.022;10.760;2023-04-10T12:00:29;101882.81;;;17.39;44.49
30516;BME280;17297;54.022;10.760;2023-04-10T12:02:54;101886.97;;;17.41;43.53
30516;BME280;17297;54.022;10.760;2023-04-10T12:05:20;101876.53;;;17.45;43.18
30516;BME280;17297;54.022;10.760;2023-04-10T12:07:45;101865.03;;;17.49;43.23
30516;BME280;17297;54.022;10.760;2023-04-10T12:10:11;101862.50;;;17.54;43.72
30516;BME280;17297;54.022;10.760;2023-04-10T12:12:36;101863.13;;;17.57;43.66
30516;BME280;17297;54.022;10.760;2023-04-10T12:15:02;101858.31;;;17.59;42.61
30516;BME280;17297;54.022;10.760;2023-04-10T12:17:28;101862.50;;;17.61;42.35
30516;BME280;17297;54.022;10.760;2023-04-10T12:19:54;101852.00;;;17.65;42.72
30516;BME280;17297;54.022;10.760;2023-04-10T12:22:19;101851.34;;;17.69;42.93
30516;BME280;17297;54.022;10.760;2023-04-10T12:27:20;101844.91;;;17.77;43.55
30516;BME280;17297;54.022;10.760;2023-04-10T12:29:47;101842.81;;;17.79;43.19
30516;BME280;17297;54.022;10.760;2023-04-10T12:32:13;101837.13;;;17.81;43.15
30516;BME280;17297;54.022;10.760;2023-04-10T12:34:39;101834.41;;;17.81;42.54
30516;BME280;17297;54.022;10.760;2023-04-10T12:37:05;101828.56;;;17.77;42.40
30516;BME280;17297;54.022;10.760;2023-04-10T12:39:30;101822.91;;;17.78;42.28
30516;BME280;17297;54.022;10.760;2023-04-10T12:42:13;101822.06;;;17.78;41.91
30516;BME280;17297;54.022;10.760;2023-04-10T12:44:49;101817.25;;;17.80;42.40
30516;BME280;17297;54.022;10.760;2023-04-10T12:47:15;101811.38;;;17.83;42.40
30516;BME280;17297;54.022;10.760;2023-04-10T12:49:40;101807.00;;;17.82;42.52
30516;BME280;17297;54.022;10.760;2023-04-10T12:52:06;101800.50;;;17.76;42.50
30516;BME280;17297;54.022;10.760;2023-04-10T12:54:35;101792.56;;;17.68;42.94
30516;BME280;17297;54.022;10.760;2023-04-10T12:57:02;101783.78;;;17.66;43.07
30516;BME280;17297;54.022;10.760;2023-04-10T12:59:31;101781.06;;;17.66;43.40
30516;BME280;17297;54.022;10.760;2023-04-10T13:01:57;101770.78;;;17.68;42.54
30516;BME280;17297;54.022;10.760;2023-04-10T13:04:23;101774.75;;;17.72;42.43
30516;BME280;17297;54.022;10.760;2023-04-10T13:06:48;101769.34;;;17.79;42.67
30516;BME280;17297;54.022;10.760;2023-04-10T13:09:17;101767.44;;;17.80;42.39
30516;BME280;17297;54.022;10.760;2023-04-10T13:11:42;101758.22;;;17.81;42.53
30516;BME280;17297;54.022;10.760;2023-04-10T13:14:08;101759.66;;;17.83;42.89
30516;BME280;17297;54.022;10.760;2023-04-10T13:16:34;101761.13;;;17.86;42.57